createdAt,value
2023-05-17T00:01:47.794Z,102522.91
2023-05-17T00:04:14.253Z,102560.09
2023-05-17T00:06:41.220Z,102566.91
2023-05-17T00:09:07.748Z,102575.28
2023-05-17T00:11:34.227Z,102572.34
2023-05-17T00:14:01.211Z,102575.72
2023-05-17T00:16:27.925Z,102548.94
2023-05-17T00:18:54.660Z,102590.50
2023-05-17T00:21:21.262Z,102566.63
2023-05-17T00:23:47.734Z,102582.69
2023-05-17T00:26:14.229Z,102569.88
2023-05-17T00:28:40.723Z,102575.91
2023-05-17T00:31:07.210Z,102565.56
2023-05-17T00:33:33.650Z,102568.75
2023-05-17T00:36:00.165Z,102571.13
2023-05-17T00:38:26.600Z,102559.75
2023-05-17T00:40:54.228Z,102571.72
2023-05-17T00:43:20.914Z,102561.34
2023-05-17T00:45:49.348Z,102562.97
2023-05-17T00:48:16.192Z,102569.31
2023-05-17T00:50:42.957Z,102567.72
2023-05-17T00:53:09.925Z,102563.81
2023-05-17T00:55:36.393Z,102567.47
2023-05-17T00:58:02.889Z,102535.34
2023-05-17T01:00:29.441Z,102577.03
2023-05-17T01:02:55.952Z,102546.28
2023-05-17T01:05:22.723Z,102541.03
2023-05-17T01:07:49.202Z,102543.47
2023-05-17T01:10:15.861Z,102572.53
2023-05-17T01:13:06.142Z,102532.16
2023-05-17T01:15:35.077Z,102541.38
2023-05-17T01:18:34.282Z,102552.03
2023-05-17T01:21:01.895Z,102529.94
2023-05-17T01:23:56.323Z,102552.44
2023-05-17T01:26:39.431Z,102519.31
2023-05-17T01:29:09.387Z,102524.22
2023-05-17T01:31:39.280Z,102527.59
2023-05-17T01:34:09.797Z,102548.94
2023-05-17T01:36:37.232Z,102551.28
2023-05-17T01:39:03.802Z,102554.50
2023-05-17T01:41:44.675Z,102521.28
2023-05-17T01:44:40.369Z,102553.09
2023-05-17T01:47:21.015Z,102556.03
2023-05-17T01:49:51.821Z,102550.81
2023-05-17T01:52:26.443Z,102561.06
2023-05-17T01:55:24.541Z,102560.50
2023-05-17T01:57:54.603Z,102572.56
2023-05-17T02:00:24.061Z,102541.59
2023-05-17T02:02:50.714Z,102545.00
2023-05-17T02:05:17.436Z,102549.97
2023-05-17T02:07:44.043Z,102543.31
2023-05-17T02:10:10.818Z,102546.03
2023-05-17T02:12:37.295Z,102554.50
2023-05-17T02:15:04.051Z,102557.13
2023-05-17T02:17:31.083Z,102563.13
2023-05-17T02:19:57.606Z,102565.03
2023-05-17T02:22:24.035Z,102562.09
2023-05-17T02:24:50.493Z,102515.63
2023-05-17T02:27:16.947Z,102556.94
2023-05-17T02:29:43.474Z,102562.97
2023-05-17T02:32:09.926Z,102552.81
2023-05-17T02:34:36.383Z,102557.22
2023-05-17T02:37:02.841Z,102575.19
2023-05-17T02:39:29.312Z,102550.44
2023-05-17T02:41:55.850Z,102565.13
2023-05-17T02:44:23.316Z,102579.72
2023-05-17T02:46:49.792Z,102572.19
2023-05-17T02:49:16.302Z,102528.34
2023-05-17T02:51:42.777Z,102578.94
2023-05-17T02:54:09.290Z,102590.34
2023-05-17T02:56:35.948Z,102586.09
2023-05-17T02:59:02.404Z,102545.72
2023-05-17T03:01:28.927Z,102574.72
2023-05-17T03:03:55.555Z,102570.41
2023-05-17T03:06:22.217Z,102589.19
2023-05-17T03:08:48.797Z,102590.78
2023-05-17T03:11:15.238Z,102591.00
2023-05-17T03:13:41.693Z,102582.88
2023-05-17T03:16:09.437Z,102581.97
2023-05-17T03:18:36.090Z,102595.88
2023-05-17T03:21:02.655Z,102584.19
2023-05-17T03:23:29.084Z,102607.34
2023-05-17T03:25:55.539Z,102611.84
2023-05-17T03:28:21.992Z,102594.16
2023-05-17T03:30:48.465Z,102612.88
2023-05-17T03:33:14.999Z,102610.53
2023-05-17T03:35:41.571Z,102624.38
2023-05-17T03:38:08.056Z,102606.66
2023-05-17T03:40:34.517Z,102623.78
2023-05-17T03:43:01.342Z,102631.94
2023-05-17T03:45:28.287Z,102616.53
2023-05-17T03:47:54.996Z,102614.19
2023-05-17T03:50:21.526Z,102635.69
2023-05-17T03:52:48.003Z,102631.59
2023-05-17T03:55:14.500Z,102628.47
2023-05-17T03:57:40.951Z,102627.56
2023-05-17T04:00:10.726Z,102638.31
2023-05-17T04:02:37.382Z,102628.31
2023-05-17T04:05:04.503Z,102626.53
2023-05-17T04:07:31.051Z,102616.03
2023-05-17T04:10:02.784Z,102626.03
2023-05-17T04:12:29.301Z,102622.81
2023-05-17T04:14:55.941Z,102637.00
2023-05-17T04:17:22.468Z,102644.94
2023-05-17T04:19:48.963Z,102656.88
2023-05-17T04:22:15.538Z,102640.63
2023-05-17T04:24:41.989Z,102659.63
2023-05-17T04:27:08.469Z,102656.56
2023-05-17T04:29:34.936Z,102664.50
2023-05-17T04:32:01.414Z,102662.91
2023-05-17T04:34:28.172Z,102666.19
2023-05-17T04:36:54.625Z,102674.66
2023-05-17T04:39:21.070Z,102661.22
2023-05-17T04:41:47.495Z,102687.34
2023-05-17T04:44:13.960Z,102684.50
2023-05-17T04:46:40.470Z,102672.13
2023-05-17T04:49:07.406Z,102683.66
2023-05-17T04:51:33.931Z,102683.88
2023-05-17T04:54:01.122Z,102696.44
2023-05-17T04:56:29.463Z,102682.91
2023-05-17T04:58:55.951Z,102700.78
2023-05-17T05:01:22.527Z,102685.03
2023-05-17T05:03:49.111Z,102661.03
2023-05-17T05:06:16.368Z,102701.69
2023-05-17T05:08:42.986Z,102680.72
2023-05-17T05:11:09.556Z,102716.50
2023-05-17T05:13:38.868Z,102730.19
2023-05-17T05:16:06.126Z,102736.53
2023-05-17T05:18:32.830Z,102722.44
2023-05-17T05:20:59.958Z,102730.06
2023-05-17T05:23:26.554Z,102727.19
2023-05-17T05:25:53.011Z,102743.31
2023-05-17T05:28:19.496Z,102742.16
2023-05-17T05:30:45.934Z,102752.91
2023-05-17T05:33:12.470Z,102751.38
2023-05-17T05:35:39.066Z,102729.97
2023-05-17T05:38:05.553Z,102752.22
2023-05-17T05:40:32.368Z,102741.78
2023-05-17T05:42:59.015Z,102764.59
2023-05-17T05:45:25.445Z,102763.53
2023-05-17T05:47:51.997Z,102765.25
2023-05-17T05:50:18.534Z,102766.75
2023-05-17T05:52:44.997Z,102773.09
2023-05-17T05:55:11.533Z,102776.28
2023-05-17T05:57:37.961Z,102778.34
2023-05-17T06:00:05.038Z,102762.03
2023-05-17T06:02:31.749Z,102751.03
2023-05-17T06:04:58.246Z,102758.81
2023-05-17T06:07:24.719Z,102781.47
2023-05-17T06:09:51.610Z,102784.66
2023-05-17T06:12:18.186Z,102766.88
2023-05-17T06:14:44.668Z,102781.06
2023-05-17T06:17:11.109Z,102764.44
2023-05-17T06:19:37.738Z,102788.56
2023-05-17T06:22:04.565Z,102787.41
2023-05-17T06:24:31.025Z,102790.28
2023-05-17T06:26:57.460Z,102796.53
2023-05-17T06:29:24.202Z,102762.22
2023-05-17T06:31:50.776Z,102795.25
2023-05-17T06:34:17.275Z,102795.69
2023-05-17T06:36:43.755Z,102800.03
2023-05-17T06:39:10.184Z,102783.94
2023-05-17T06:41:36.971Z,102816.69
2023-05-17T06:44:03.554Z,102793.75
2023-05-17T06:46:30.005Z,102820.81
2023-05-17T06:48:56.539Z,102823.19
2023-05-17T06:51:23.747Z,102823.31
2023-05-17T06:53:50.358Z,102812.47
2023-05-17T06:56:17.046Z,102810.31
2023-05-17T06:58:43.602Z,102830.97
2023-05-17T07:01:10.248Z,102815.88
2023-05-17T07:03:39.379Z,102808.16
2023-05-17T07:06:06.036Z,102831.91
2023-05-17T07:08:32.542Z,102824.63
2023-05-17T07:10:59.061Z,102820.56
2023-05-17T07:13:25.548Z,102842.59
2023-05-17T07:15:52.082Z,102822.50
2023-05-17T07:18:18.571Z,102804.31
2023-05-17T07:20:45.037Z,102850.50
2023-05-17T07:23:11.488Z,102846.16
2023-05-17T07:25:40.395Z,102829.19
2023-05-17T07:28:06.994Z,102851.25
2023-05-17T07:30:33.563Z,102837.03
2023-05-17T07:33:00.091Z,102848.78
2023-05-17T07:35:26.735Z,102840.72
2023-05-17T07:37:53.455Z,102848.41
2023-05-17T07:40:20.019Z,102876.06
2023-05-17T07:42:46.478Z,102866.09
2023-05-17T07:45:12.925Z,102858.34
2023-05-17T07:47:39.487Z,102851.28
2023-05-17T07:50:06.629Z,102867.16
2023-05-17T07:52:33.156Z,102871.78
2023-05-17T07:54:59.672Z,102881.59
2023-05-17T07:57:27.340Z,102870.47
2023-05-17T07:59:53.774Z,102879.69
2023-05-17T08:02:20.560Z,102853.44
2023-05-17T08:04:47.028Z,102839.94
2023-05-17T08:07:13.521Z,102883.19
2023-05-17T08:09:40.462Z,102902.16
2023-05-17T08:12:06.948Z,102870.59
2023-05-17T08:14:33.450Z,102885.13
2023-05-17T08:16:59.889Z,102888.31
2023-05-17T08:19:26.702Z,102883.84
2023-05-17T08:21:53.384Z,102882.41
2023-05-17T08:24:19.910Z,102873.53
2023-05-17T08:26:48.438Z,102887.13
2023-05-17T08:29:14.989Z,102878.81
2023-05-17T08:31:41.780Z,102873.81
2023-05-17T08:34:08.504Z,102885.25
2023-05-17T08:36:35.036Z,102879.47
2023-05-17T08:39:01.696Z,102900.25
2023-05-17T08:41:28.317Z,102888.19
2023-05-17T08:43:55.268Z,102898.81
2023-05-17T08:46:23.868Z,102898.16
2023-05-17T08:48:52.003Z,102884.78
2023-05-17T08:51:19.752Z,102876.69
2023-05-17T08:53:47.006Z,102895.50
2023-05-17T08:56:16.596Z,102894.13
2023-05-17T08:58:55.627Z,102874.25
2023-05-17T09:01:25.984Z,102891.00
2023-05-17T09:03:53.741Z,102895.66
2023-05-17T09:06:22.223Z,102913.66
2023-05-17T09:08:52.701Z,102856.25
2023-05-17T09:11:28.004Z,102901.69
2023-05-17T09:13:58.351Z,102887.41
2023-05-17T09:16:25.117Z,102888.25
2023-05-17T09:18:56.354Z,102904.34
2023-05-17T09:21:24.701Z,102893.22
2023-05-17T09:24:04.567Z,102895.59
2023-05-17T09:26:43.724Z,102895.50
2023-05-17T09:29:12.596Z,102897.50
2023-05-17T09:31:40.161Z,102898.91
2023-05-17T09:34:09.864Z,102893.81
2023-05-17T09:36:38.525Z,102903.34
2023-05-17T09:39:07.831Z,102913.81
2023-05-17T09:41:44.964Z,102884.38
2023-05-17T09:44:12.334Z,102897.38
2023-05-17T09:46:44.359Z,102912.38
2023-05-17T09:49:11.158Z,102918.53
2023-05-17T09:51:41.674Z,102885.41
2023-05-17T09:54:10.277Z,102884.47
2023-05-17T09:56:37.228Z,102912.38
2023-05-17T09:59:10.557Z,102899.13
2023-05-17T10:01:45.130Z,102907.31
2023-05-17T10:04:13.445Z,102906.75
2023-05-17T10:09:14.173Z,102905.84
2023-05-17T10:11:44.359Z,102855.69
2023-05-17T10:14:18.667Z,102919.25
2023-05-17T10:16:45.291Z,102910.72
2023-05-17T10:19:12.258Z,102898.72
2023-05-17T10:21:39.399Z,102906.25
2023-05-17T10:24:06.365Z,102907.75
2023-05-17T10:26:33.437Z,102928.94
2023-05-17T10:29:02.177Z,102911.44
2023-05-17T10:31:33.645Z,102916.94
2023-05-17T10:34:06.398Z,102917.81
2023-05-17T10:36:33.909Z,102910.22
2023-05-17T10:39:01.941Z,102917.34
2023-05-17T10:41:34.002Z,102909.81
2023-05-17T10:44:03.210Z,102905.34
2023-05-17T10:46:30.885Z,102896.97
2023-05-17T10:49:01.507Z,102919.03
2023-05-17T10:51:33.491Z,102901.28
2023-05-17T10:54:13.053Z,102905.06
2023-05-17T10:57:01.307Z,102877.38
2023-05-17T10:59:29.671Z,102907.34
2023-05-17T11:02:06.955Z,102910.28
2023-05-17T11:04:42.194Z,102910.34
2023-05-17T11:07:19.095Z,102918.91
2023-05-17T11:10:06.365Z,102903.47
2023-05-17T11:12:37.307Z,102916.16
2023-05-17T11:15:08.455Z,102916.41
2023-05-17T11:17:46.863Z,102895.81
2023-05-17T11:20:17.116Z,102919.75
2023-05-17T11:23:00.893Z,102919.81
2023-05-17T11:25:32.628Z,102917.28
2023-05-17T11:27:59.887Z,102930.56
2023-05-17T11:30:31.205Z,102921.66
2023-05-17T11:33:02.656Z,102929.16
2023-05-17T11:35:33.835Z,102923.97
2023-05-17T11:38:26.519Z,102935.56
2023-05-17T11:40:57.547Z,102878.56
2023-05-17T11:43:31.067Z,102917.56
2023-05-17T11:46:03.854Z,102878.50
2023-05-17T11:48:31.538Z,102914.69
2023-05-17T11:50:59.867Z,102896.66
2023-05-17T11:53:28.452Z,102909.00
2023-05-17T11:55:56.079Z,102916.72
2023-05-17T11:58:26.827Z,102891.25
2023-05-17T12:00:55.530Z,102917.69
2023-05-17T12:03:26.323Z,102908.03
2023-05-17T12:06:09.955Z,102858.75
2023-05-17T12:08:38.230Z,102903.44
2023-05-17T12:11:07.053Z,102898.63
2023-05-17T12:13:35.730Z,102895.00
2023-05-17T12:16:05.921Z,102903.19
2023-05-17T12:18:40.990Z,102883.56
2023-05-17T12:21:09.077Z,102912.97
2023-05-17T12:23:37.995Z,102897.78
2023-05-17T12:26:12.793Z,102902.53
2023-05-17T12:28:42.129Z,102896.84
2023-05-17T12:31:14.491Z,102865.84
2023-05-17T12:33:43.033Z,102822.50
2023-05-17T12:36:11.808Z,102876.84
2023-05-17T12:38:41.082Z,102909.22
2023-05-17T12:41:10.714Z,102902.50
2023-05-17T12:43:38.818Z,102876.94
2023-05-17T12:46:11.482Z,102886.78
2023-05-17T12:48:40.121Z,102890.00
2023-05-17T12:51:26.845Z,102875.69
2023-05-17T12:53:55.683Z,102895.50
2023-05-17T12:56:28.165Z,102892.25
2023-05-17T12:59:28.992Z,102898.00
2023-05-17T13:01:56.848Z,102869.34
2023-05-17T13:04:34.510Z,102873.69
2023-05-17T13:07:03.381Z,102883.69
2023-05-17T13:09:32.005Z,102884.97
2023-05-17T13:12:01.122Z,102882.56
2023-05-17T13:14:41.981Z,102888.19
2023-05-17T13:17:11.057Z,102885.19
2023-05-17T13:19:38.610Z,102881.13
2023-05-17T13:22:06.323Z,102883.63
2023-05-17T13:24:37.780Z,102879.94
2023-05-17T13:27:05.145Z,102868.75
2023-05-17T13:29:39.564Z,102752.97
2023-05-17T13:32:08.322Z,102896.38
2023-05-17T13:34:35.261Z,102885.78
2023-05-17T13:37:01.866Z,102880.06
2023-05-17T13:39:28.330Z,102878.22
2023-05-17T13:41:54.801Z,102871.06
2023-05-17T13:44:21.279Z,102873.34
2023-05-17T13:46:47.835Z,102883.81
2023-05-17T13:49:14.398Z,102881.22
2023-05-17T13:51:40.934Z,102879.13
2023-05-17T13:54:07.426Z,102864.78
2023-05-17T13:56:34.380Z,102866.84
2023-05-17T13:59:01.190Z,102885.19
2023-05-17T14:01:27.872Z,102867.38
2023-05-17T14:03:55.318Z,102865.16
2023-05-17T14:06:21.943Z,102859.03
2023-05-17T14:08:48.679Z,102874.19
2023-05-17T14:11:15.182Z,102861.00
2023-05-17T14:13:42.464Z,102870.44
2023-05-17T14:16:08.894Z,102867.53
2023-05-17T14:18:35.757Z,102894.09
2023-05-17T14:21:03.459Z,102868.00
2023-05-17T14:23:29.966Z,102863.91
2023-05-17T14:25:57.712Z,102870.97
2023-05-17T14:28:24.434Z,102879.16
2023-05-17T14:30:53.263Z,102852.56
2023-05-17T14:33:20.044Z,102858.53
2023-05-17T14:35:46.604Z,102883.50
2023-05-17T14:38:13.078Z,102881.41
2023-05-17T14:40:39.523Z,102857.91
2023-05-17T14:43:06.331Z,102867.34
2023-05-17T14:45:32.766Z,102884.41
2023-05-17T14:47:59.223Z,102886.22
2023-05-17T14:50:25.737Z,102865.56
2023-05-17T14:52:52.645Z,102869.75
2023-05-17T14:55:19.966Z,102844.91
2023-05-17T14:57:46.393Z,102874.59
2023-05-17T15:00:13.571Z,102858.97
2023-05-17T15:02:40.217Z,102864.34
2023-05-17T15:05:07.217Z,102872.22
2023-05-17T15:07:34.341Z,102876.25
2023-05-17T15:10:01.387Z,102884.78
2023-05-17T15:12:28.256Z,102885.19
2023-05-17T15:14:54.713Z,102869.78
2023-05-17T15:17:22.066Z,102883.38
2023-05-17T15:19:48.857Z,102874.06
2023-05-17T15:22:15.398Z,102869.72
2023-05-17T15:24:41.830Z,102875.31
2023-05-17T15:27:08.553Z,102880.50
2023-05-17T15:29:35.095Z,102880.59
2023-05-17T15:32:01.588Z,102875.91
2023-05-17T15:34:29.176Z,102874.22
2023-05-17T15:36:56.449Z,102859.22
2023-05-17T15:39:22.878Z,102896.44
2023-05-17T15:41:49.469Z,102879.16
2023-05-17T15:44:16.306Z,102849.06
2023-05-17T15:46:42.803Z,102868.72
2023-05-17T15:49:09.279Z,102884.28
2023-05-17T15:51:36.025Z,102859.41
2023-05-17T15:54:02.487Z,102861.66
2023-05-17T15:56:28.981Z,102865.72
2023-05-17T15:58:55.455Z,102865.91
2023-05-17T16:01:21.953Z,102860.00
2023-05-17T16:03:48.502Z,102865.06
2023-05-17T16:06:15.063Z,102879.50
2023-05-17T16:08:42.075Z,102865.09
2023-05-17T16:11:09.892Z,102878.94
2023-05-17T16:13:36.335Z,102870.44
2023-05-17T16:16:02.995Z,102863.50
2023-05-17T16:18:31.016Z,102853.81
2023-05-17T16:20:59.311Z,102861.69
2023-05-17T16:23:26.029Z,102851.75
2023-05-17T16:25:55.044Z,102852.38
2023-05-17T16:28:22.843Z,102857.50
2023-05-17T16:30:50.495Z,102868.25
2023-05-17T16:33:17.512Z,102874.72
2023-05-17T16:35:44.045Z,102862.41
2023-05-17T16:38:10.599Z,102870.31
2023-05-17T16:40:38.761Z,102874.56
2023-05-17T16:43:05.569Z,102863.22
2023-05-17T16:45:32.015Z,102869.22
2023-05-17T16:47:58.505Z,102867.41
2023-05-17T16:50:25.000Z,102862.84
2023-05-17T16:52:51.824Z,102854.19
2023-05-17T16:55:18.306Z,102857.31
2023-05-17T16:57:44.845Z,102848.16
2023-05-17T17:00:12.125Z,102880.94
2023-05-17T17:02:38.801Z,102867.28
2023-05-17T17:05:06.266Z,102862.34
2023-05-17T17:07:32.700Z,102865.69
2023-05-17T17:09:59.117Z,102882.00
2023-05-17T17:12:26.246Z,102877.50
2023-05-17T17:14:53.563Z,102883.84
2023-05-17T17:17:20.091Z,102868.69
2023-05-17T17:19:46.516Z,102884.22
2023-05-17T17:22:14.612Z,102885.81
2023-05-17T17:24:41.231Z,102877.59
2023-05-17T17:27:07.698Z,102867.56
2023-05-17T17:29:34.181Z,102892.31
2023-05-17T17:32:00.834Z,102887.97
2023-05-17T17:34:27.375Z,102875.56
2023-05-17T17:36:54.067Z,102886.91
2023-05-17T17:39:20.610Z,102883.66
2023-05-17T17:41:47.071Z,102876.41
2023-05-17T17:44:13.528Z,102891.34
2023-05-17T17:46:40.011Z,102847.81
2023-05-17T17:49:06.500Z,102894.97
2023-05-17T17:51:33.003Z,102888.34
2023-05-17T17:53:59.541Z,102882.66
2023-05-17T17:56:26.126Z,102895.63
2023-05-17T17:58:55.887Z,102881.25
2023-05-17T18:03:49.408Z,102881.19
2023-05-17T18:06:16.196Z,102909.38
2023-05-17T18:08:42.717Z,102910.97
2023-05-17T18:11:09.321Z,102900.91
2023-05-17T18:13:35.797Z,102919.34
2023-05-17T18:16:02.351Z,102909.84
2023-05-17T18:18:28.921Z,102900.63
2023-05-17T18:20:55.535Z,102900.44
2023-05-17T18:23:22.032Z,102911.34
2023-05-17T18:25:50.617Z,102907.09
2023-05-17T18:28:21.654Z,102910.06
2023-05-17T18:30:58.054Z,102906.56
2023-05-17T18:33:25.465Z,102900.22
2023-05-17T18:35:51.935Z,102899.22
2023-05-17T18:38:18.471Z,102889.69
2023-05-17T18:40:45.158Z,102896.06
2023-05-17T18:43:12.902Z,102904.09
2023-05-17T18:45:39.423Z,102895.34
2023-05-17T18:48:06.285Z,102892.34
2023-05-17T18:50:32.875Z,102899.13
2023-05-17T18:53:02.260Z,102901.34
2023-05-17T18:55:28.716Z,102922.13
2023-05-17T18:57:55.188Z,102916.34
2023-05-17T19:00:21.631Z,102922.25
2023-05-17T19:02:48.178Z,102925.09
2023-05-17T19:05:14.913Z,102926.63
2023-05-17T19:07:41.452Z,102936.69
2023-05-17T19:10:08.337Z,102929.44
2023-05-17T19:12:35.547Z,102922.72
2023-05-17T19:15:04.105Z,102934.59
2023-05-17T19:17:30.801Z,102936.91
2023-05-17T19:19:57.344Z,102923.69
2023-05-17T19:22:23.788Z,102940.13
2023-05-17T19:24:50.830Z,102933.34
2023-05-17T19:27:19.701Z,102947.59
2023-05-17T19:29:47.607Z,102938.34
2023-05-17T19:32:14.181Z,102932.63
2023-05-17T19:34:40.896Z,102900.84
2023-05-17T19:37:07.418Z,102916.78
2023-05-17T19:39:33.848Z,102918.06
2023-05-17T19:42:00.394Z,102940.16
2023-05-17T19:44:26.874Z,102923.28
2023-05-17T19:46:53.641Z,102937.13
2023-05-17T19:49:20.359Z,102934.50
2023-05-17T19:51:48.151Z,102938.56
2023-05-17T19:54:14.717Z,102941.28
2023-05-17T19:56:41.172Z,102953.16
2023-05-17T19:59:07.655Z,102941.47
2023-05-17T20:01:34.166Z,102941.47
2023-05-17T20:04:00.746Z,102943.63
2023-05-17T20:06:27.272Z,102945.66
2023-05-17T20:08:53.763Z,102952.38
2023-05-17T20:11:21.400Z,102925.00
2023-05-17T20:13:47.867Z,102951.34
2023-05-17T20:16:14.724Z,102952.63
2023-05-17T20:18:45.057Z,102901.69
2023-05-17T20:21:15.157Z,102945.75
2023-05-17T20:23:41.865Z,102924.69
2023-05-17T20:26:08.337Z,102938.56
2023-05-17T20:28:34.800Z,102938.56
2023-05-17T20:31:01.337Z,102935.06
2023-05-17T20:33:27.890Z,102909.88
2023-05-17T20:35:54.393Z,102921.09
2023-05-17T20:38:21.607Z,102934.31
2023-05-17T20:40:48.278Z,102916.00
2023-05-17T20:43:16.726Z,102934.50
2023-05-17T20:45:43.624Z,102938.66
2023-05-17T20:48:10.321Z,102886.09
2023-05-17T20:50:37.075Z,102924.59
2023-05-17T20:53:03.664Z,102937.09
2023-05-17T20:55:30.180Z,102935.03
2023-05-17T20:57:56.980Z,102937.59
2023-05-17T21:00:24.718Z,102938.84
2023-05-17T21:02:51.377Z,102949.28
2023-05-17T21:05:17.991Z,102934.94
2023-05-17T21:07:46.677Z,102937.69
2023-05-17T21:10:13.282Z,102926.28
2023-05-17T21:12:39.852Z,102902.91
2023-05-17T21:15:16.672Z,102946.28
2023-05-17T21:17:43.990Z,102929.34
2023-05-17T21:20:11.203Z,102934.91
2023-05-17T21:22:37.864Z,102937.22
2023-05-17T21:25:05.004Z,102937.06
2023-05-17T21:27:33.703Z,102952.63
2023-05-17T21:30:00.852Z,102936.06
2023-05-17T21:32:27.633Z,102947.94
2023-05-17T21:34:54.516Z,102948.47
2023-05-17T21:37:21.201Z,102943.06
2023-05-17T21:39:47.678Z,102927.59
2023-05-17T21:42:14.140Z,102935.03
2023-05-17T21:44:40.863Z,102943.00
2023-05-17T21:47:07.342Z,102959.56
2023-05-17T21:49:33.922Z,102954.66
2023-05-17T21:52:00.434Z,102943.28
2023-05-17T21:54:26.922Z,102952.34
2023-05-17T21:56:53.413Z,102943.69
2023-05-17T21:59:19.895Z,102941.91
2023-05-17T22:01:46.429Z,102954.66
2023-05-17T22:04:12.924Z,102937.75
2023-05-17T22:06:39.382Z,102933.66
2023-05-17T22:09:07.052Z,102934.78
2023-05-17T22:11:38.178Z,102919.22
2023-05-17T22:14:08.047Z,102952.25
2023-05-17T22:16:36.249Z,102919.31
2023-05-17T22:19:03.872Z,102954.50
2023-05-17T22:21:31.592Z,102937.19
2023-05-17T22:23:58.662Z,102920.19
2023-05-17T22:26:25.707Z,102953.69
2023-05-17T22:28:52.487Z,102952.84
2023-05-17T22:31:19.720Z,102958.09
2023-05-17T22:33:46.472Z,102958.00
2023-05-17T22:36:17.884Z,102951.06
2023-05-17T22:38:44.328Z,102965.41
2023-05-17T22:41:11.457Z,102959.69
2023-05-17T22:43:38.502Z,102942.56
2023-05-17T22:46:05.720Z,102953.59
2023-05-17T22:48:32.409Z,102964.88
2023-05-17T22:51:02.133Z,102969.28
2023-05-17T22:53:29.747Z,102963.53
2023-05-17T22:55:56.736Z,102924.53
2023-05-17T22:58:26.223Z,102948.63
2023-05-17T23:00:52.893Z,102976.88
2023-05-17T23:03:20.423Z,102972.69
2023-05-17T23:05:47.324Z,102943.88
2023-05-17T23:08:15.568Z,102972.78
2023-05-17T23:10:45.362Z,102953.03
2023-05-17T23:13:13.034Z,102964.19
2023-05-17T23:15:40.857Z,102964.13
2023-05-17T23:18:07.482Z,102968.38
2023-05-17T23:20:34.994Z,102955.47
2023-05-17T23:23:01.801Z,102936.75
2023-05-17T23:25:29.168Z,102946.41
2023-05-17T23:27:58.122Z,102938.59
2023-05-17T23:30:24.944Z,102967.69
2023-05-17T23:32:52.262Z,102913.41
2023-05-17T23:35:18.901Z,102940.47
2023-05-17T23:37:45.522Z,102942.94
2023-05-17T23:40:12.744Z,102966.38
2023-05-17T23:42:40.781Z,102964.22
2023-05-17T23:45:07.923Z,102963.44
2023-05-17T23:47:34.386Z,102954.00
2023-05-17T23:50:02.623Z,102954.31
2023-05-17T23:52:32.436Z,102963.06
2023-05-17T23:54:59.315Z,102945.22
2023-05-17T23:57:26.114Z,102923.94
2023-05-17T23:59:52.725Z,102936.72
